NCAR-RAP Real-Time Weather Data

Output produced by METARs form (17 December 2018  14:17 UTC)
found at http://weather.rap.ucar.edu/surface/
 
RJSK 171248Z VRB02KT 3000 R28/0600V0900D -SHRASN PRFG BR FEW001 BKN003 BKN010 02/02 Q1005 RMK 2ST001 5ST003 6ST010 A2969 0700NE-SE
RJSK 171240Z 17002KT 4000 R28/0600VP2000D -SHRASN PRFG BR FEW001 SCT003 BKN025 02/02 Q1005 RMK 1ST001 4ST003 6CU025 A2969 0700NE-SE
RJSK 171237Z VRB02KT 6000 R28/0600VP2000D -SHRASN PRFG FEW001 SCT003 BKN025 02/02 Q1005 RMK 1ST001 3ST003 6CU025 A2969 0800NE-SE
RJSK 171236Z VRB01KT 6000 R28/0600VP2000D -SHRASN PRFG FEW001 SCT003 BKN025 02/02 Q1005 RMK 1ST001 3ST003 6CU025 A2969 0800NE-SE
RJSK 171200Z 00000KT 9999 -SHRA FEW005 SCT025 BKN035 03/02 Q1005
RJSK 171100Z 36004KT 320V030 9999 -SHRA FEW002 SCT020 BKN035 02/02 Q1005
RJSK 171000Z 35003KT 6000 -SHRA PRFG FEW001 SCT015 BKN025 03/03 Q1005
RJSK 170926Z 33003KT 3500 R28/1200VP2000D -SHRA PRFG BR FEW001 SCT003 BKN025 03/03 Q1005 RMK 1ST001 3ST003 6CU025 A2970 1400E-SE
RJSK 170903Z VRB02KT 6000 R28/0750VP2000U -SHRA PRFG FEW001 SCT020 BKN035 04/03 Q1005 RMK 1ST001 3CU020 6CU035 A2969 1600E-SE
RJSK 170900Z VRB02KT 8000 R28/0750VP2000U -SHRA PRFG FEW001 SCT020 BKN035 03/03 Q1005
RJSK 170800Z VRB02KT 8000 R28/2000N -SHRA FEW003 SCT020 BKN035 04/03 Q1005
RJSK 170700Z 34005KT 300V020 8000 -SHRA FEW004 SCT015 BKN025 04/04 Q1005
RJSK 170600Z 17003KT 140V210 9999 FEW005 SCT025 BKN040 04/04 Q1005
RJSK 170500Z 16003KT 140V210 9999 FEW010 BKN040 BKN100 05/04 Q1005
RJSK 170400Z 15003KT 110V200 9999 FEW005 SCT080 05/04 Q1005
RJSK 170300Z 17003KT 130V210 9999 FEW001 SCT004 BKN090 05/04 Q1006
RJSK 170215Z 11005KT 5000 BR FEW001 SCT003 BKN070 04/03 Q1007 RMK 1ST001 4ST003 5AC070 A2975
RJSK 170210Z 12005KT 4500 BR FEW001 BKN003 BKN040 04/03 Q1007 RMK 1ST001 5ST003 5CU040 A2975
RJSK 170200Z 13004KT 3000 BCFG BR FEW001 BKN003 BKN030 03/03 Q1008
RJSK 170139Z 12006KT 3500 BCFG BR FEW001 BKN003 BKN045 03/03 Q1008 RMK 1ST001 5ST003 5CU045 A2978 9999NW
RJSK 170109Z 12006KT 1600 BCFG BR FEW001 BKN003 BKN045 03/03 Q1009 RMK 1ST001 5ST003 5CU045 A2979
RJSK 170100Z 13006KT 2000 BCFG BR FEW001 SCT003 BKN045 03/03 Q1009
RJSK 170020Z 14003KT 110V170 1600 -SHRA BCFG BR FEW001 SCT030 BKN050 03/03 Q1009 RMK 2ST001 3CU030 5CU050 A2982 9999W-NW
RJSK 170000Z 13003KT 100V160 1000 R28/P2000N -SHRA BCFG BR FEW001 SCT003 BKN045 03/02 Q1009
RJSK 162321Z 15003KT 120V180 1200 R28/1000VP2000U -SHRA BCFG BR FEW001 SCT020 BKN040 02/02 Q1009 RMK 2ST001 3CU020 5CU040 A2982 8000W-NW
RJSK 162311Z 17004KT 1000 R28/0800VP2000N -SHRA BCFG BR FEW001 SCT002 BKN040 02/02 Q1009 RMK 2ST001 4ST002 5CU040 A2982 3000W-NW
RJSK 162300Z 16004KT 130V190 0800 R28/0750V1600U -SHRA FG SCT001 BKN002 BKN050 02/02 Q1009
RJSK 162230Z 16003KT 0500 R28/0750N -SHRA FG SCT001 BKN002 BKN025 02/02 Q1009 RMK 3ST001 5ST002 5CU025 A2982
RJSK 162223Z 17004KT 0600 R28/0750V1000D -SHRA FG SCT001 BKN002 BKN025 02/02 Q1009 RMK 3ST001 5ST002 5CU025 A2982 1500NW
RJSK 162212Z 17003KT 0700 R28/0900V1200N -SHRA FG FEW001 SCT003 BKN025 02/02 Q1009 RMK 2ST001 4ST003 5CU025 A2982 1800W-NW
RJSK 162200Z 18004KT 150V220 0700 R28/0700N -SHRA FG FEW001 SCT003 BKN025 02/02 Q1009
RJSK 162140Z 16003KT 130V220 1400 R28/1200VP2000N -SHRA BCFG BR FEW001 SCT010 BKN025 02/02 Q1009 RMK 2ST001 3ST010 5CU025 A2982
RJSK 161200Z 12006KT 090V160 9999 FEW025 SCT050 BKN080 01/00 Q1012
RJSK 161100Z 12004KT 9999 FEW025 SCT100 BKN120 01/00 Q1014
RJSK 161000Z 15003KT 110V210 9999 FEW025 SCT100 BKN120 01/00 Q1015
RJSK 160900Z 15003KT 120V180 9999 FEW025 SCT100 BKN120 01/01 Q1015
RJSK 160800Z 13004KT 9999 FEW025 BKN120 BKN150 02/01 Q1016
RJSK 160700Z 12006KT 9999 FEW025 SCT050 BKN180 02/01 Q1017
RJSK 160600Z 13004KT 9999 FEW025 BKN045 BKN060 03/01 Q1018
RJSK 160500Z 13004KT 100V160 9999 FEW025 BKN040 03/01 Q1018
RJSK 160400Z 11008KT 9999 -SHRA FEW005 SCT025 BKN035 03/01 Q1019
RJSK 160300Z 16003KT 110V210 9999 -SHRA FEW005 SCT020 BKN030 02/01 Q1020
RJSK 160200Z 13003KT 100V180 8000 -SHRA FEW005 SCT015 BKN025 01/01 Q1022
RJSK 160100Z 12003KT 9999 FEW001 SCT020 BKN030 01/00 Q1023
RJSK 160017Z 10005KT 6000 -SHRA FEW001 SCT015 BKN025 01/00 Q1023 RMK 1ST001 3CU015 5CU025 A3021
RJSK 160000Z 11005KT 080V150 3000 R28/2000N -SHSNRA BR FEW001 SCT010 BKN025 00/M00 Q1023
RJSK 152349Z 14004KT 100V190 2000 -SHSN FEW001 SCT006 BKN015 00/M00 Q1023 RMK 1ST001 3ST006 6CU015 A3022
RJSK 151200Z 15005KT 120V180 9999 -SHSN FEW010 SCT035 BKN040 M01/M02 Q1026
RJSK 151100Z 12003KT 9999 -SHSN FEW010 BKN030 M01/M02 Q1026
RJSK 151000Z 15004KT 9999 -SHSN FEW010 BKN040 BKN050 M01/M02 Q1027
RJSK 150900Z 16003KT 130V200 9999 -SHSN FEW010 SCT045 BKN050 M01/M02 Q1026
RJSK 150800Z 17003KT 9999 -SHSN FEW010 SCT035 BKN040 M01/M02 Q1026
RJSK 150700Z VRB02KT 9999 FEW010 BKN045 M01/M03 Q1026
RJSK 150600Z 31005KT 9999 -SHSN FEW010 BKN030 BKN040 00/M05 Q1026
RJSK 150500Z 33007KT 270V360 9999 FEW030 SCT040 BKN045 01/M05 Q1026
RJSK 150400Z 31005KT 9999 FEW030 BKN045 01/M03 Q1025
RJSK 150300Z 36006KT 300V030 9999 -SHSN FEW010 SCT030 BKN050 00/M03 Q1026